Aeroporto :
LOGIN :

Iscrizione | Disclaimer

   EN    FR    IT 

 










Sommario :    VFR   VFR Marginale   IFR   IFR Intensivo   IFR Molto Intensivo
Visibilità : 
Base nubi : 
>= 8 km
>= 3000ft
5 / 8 km
1000 / 3000 ft
1500m / 5 km
500 / 1000 ft
800 / 1500m
200 / 500 ft
< 800m
< 200 ft
Simboli :   Temporali  Nebbia  Neve Forte  Precipitazioni Forti  Vento > 20 kt
SIGMETs :   Varie  Temporali  Ghiacco  Turbolenza  Onda orograficha  Ceneri Vulcaniche






- Altitudine del aeroporto : 39 ft
- Codice IATA : ANR


EBAW - Anvers / Antwerpen Deurne

ULTIMO METAR :
  • 240350Z AUTO 19003KT 160V220 CAVOK 06/01 Q1023

METARs OBSOLETI :
  • 240320Z AUTO 21005KT CAVOK 06/01 Q1024
  • 240250Z AUTO 21005KT CAVOK 06/01 Q1024
  • 240220Z AUTO 21005KT CAVOK 06/01 Q1024
  • 240150Z AUTO 22005KT CAVOK 06/01 Q1024
  • 240120Z AUTO VRB02KT CAVOK 05/00 Q1024

TAF TAF EBAW
Valido dal 24 a 03 ore il 24 a 12 ore UTC


240219Z 2403/2412 18004KT CAVOK
TEMPO 2405/2409 4800 -RA
BECMG 2407/2409 4000 -RADZ SCT008 BKN012
TEMPO 2409/2412 BKN008
PROB40
TEMPO 2409/2412 BKN004
BECMG 2410/2412 24014KT



MetMap, La meteo Aeronautica in un colpo d'occhio ! - Copyright ORBIFLY Dicembre 2007 - Disclaimer

ORBIFLY MET'MAP TEAM :

Programmazione e sviluppo : Alexandra Zaïnal
Concezione : Baudouin d'Aumeries
Aiuto per la programmazione : Marc-Olivier Méhu
Supporto tecnico e logistico : Manuel Goepfert
Aiuto per la traduzione : Arnaldo La Scala

Contatto : metmap@orbifly.com




FONTI E CREDITI :

   NOAA